sensor_id;sensor_type;location;lat;lon;timestamp;P1;durP1;ratioP1;P2;durP2;ratioP2
10465;SDS011;5280;42.600;23.556;2022-08-14T00:00:49;13.37;;;10.67;;
10465;SDS011;5280;42.600;23.556;2022-08-14T00:03:18;11.67;;;10.67;;
10465;SDS011;5280;42.600;23.556;2022-08-14T00:05:45;11.23;;;10.13;;
10465;SDS011;5280;42.600;23.556;2022-08-14T00:08:12;11.67;;;10.43;;
10465;SDS011;5280;42.600;23.556;2022-08-14T00:10:39;12.10;;;10.00;;
10465;SDS011;5280;42.600;23.556;2022-08-14T00:13:06;15.57;;;11.13;;
10465;SDS011;5280;42.600;23.556;2022-08-14T00:15:37;11.03;;;9.83;;
10465;SDS011;5280;42.600;23.556;2022-08-14T00:18:06;12.63;;;10.37;;
10465;SDS011;5280;42.600;23.556;2022-08-14T00:20:35;12.53;;;10.73;;
10465;SDS011;5280;42.600;23.556;2022-08-14T00:23:04;12.10;;;10.90;;
10465;SDS011;5280;42.600;23.556;2022-08-14T00:25:32;12.17;;;11.07;;
10465;SDS011;5280;42.600;23.556;2022-08-14T00:28:00;12.17;;;10.97;;
10465;SDS011;5280;42.600;23.556;2022-08-14T00:30:29;11.47;;;10.50;;
10465;SDS011;5280;42.600;23.556;2022-08-14T00:32:58;11.67;;;10.57;;
10465;SDS011;5280;42.600;23.556;2022-08-14T00:35:25;12.63;;;9.67;;
10465;SDS011;5280;42.600;23.556;2022-08-14T00:37:52;10.90;;;9.80;;
10465;SDS011;5280;42.600;23.556;2022-08-14T00:40:19;10.70;;;9.70;;
10465;SDS011;5280;42.600;23.556;2022-08-14T00:42:47;10.50;;;9.50;;
10465;SDS011;5280;42.600;23.556;2022-08-14T00:45:15;12.13;;;9.73;;
10465;SDS011;5280;42.600;23.556;2022-08-14T00:47:43;9.83;;;8.97;;
10465;SDS011;5280;42.600;23.556;2022-08-14T00:50:14;11.07;;;9.93;;
10465;SDS011;5280;42.600;23.556;2022-08-14T00:52:43;11.23;;;10.03;;
10465;SDS011;5280;42.600;23.556;2022-08-14T00:55:11;11.57;;;10.37;;
10465;SDS011;5280;42.600;23.556;2022-08-14T00:57:38;10.20;;;8.43;;
10465;SDS011;5280;42.600;23.556;2022-08-14T01:00:07;11.50;;;10.30;;
10465;SDS011;5280;42.600;23.556;2022-08-14T01:02:36;11.80;;;10.17;;
10465;SDS011;5280;42.600;23.556;2022-08-14T01:05:07;10.47;;;9.47;;
10465;SDS011;5280;42.600;23.556;2022-08-14T01:07:49;11.77;;;9.83;;
10465;SDS011;5280;42.600;23.556;2022-08-14T01:10:18;11.50;;;9.93;;
10465;SDS011;5280;42.600;23.556;2022-08-14T01:12:46;12.10;;;9.83;;
10465;SDS011;5280;42.600;23.556;2022-08-14T01:15:14;11.53;;;9.97;;
10465;SDS011;5280;42.600;23.556;2022-08-14T01:17:45;10.33;;;9.23;;
10465;SDS011;5280;42.600;23.556;2022-08-14T01:20:30;11.17;;;10.07;;
10465;SDS011;5280;42.600;23.556;2022-08-14T01:23:16;10.97;;;9.73;;
10465;SDS011;5280;42.600;23.556;2022-08-14T01:25:43;10.60;;;9.70;;
10465;SDS011;5280;42.600;23.556;2022-08-14T01:28:10;10.87;;;9.77;;
10465;SDS011;5280;42.600;23.556;2022-08-14T01:30:37;10.13;;;9.13;;
10465;SDS011;5280;42.600;23.556;2022-08-14T01:33:06;11.07;;;9.00;;
10465;SDS011;5280;42.600;23.556;2022-08-14T01:35:33;11.13;;;9.67;;
10465;SDS011;5280;42.600;23.556;2022-08-14T01:38:00;11.53;;;10.00;;
10465;SDS011;5280;42.600;23.556;2022-08-14T01:40:28;10.50;;;9.60;;
10465;SDS011;5280;42.600;23.556;2022-08-14T01:42:55;10.90;;;9.80;;
10465;SDS011;5280;42.600;23.556;2022-08-14T01:45:22;11.00;;;9.90;;
10465;SDS011;5280;42.600;23.556;2022-08-14T01:47:49;10.97;;;9.57;;
10465;SDS011;5280;42.600;23.556;2022-08-14T01:50:16;11.07;;;9.97;;
10465;SDS011;5280;42.600;23.556;2022-08-14T01:52:43;11.07;;;10.03;;
10465;SDS011;5280;42.600;23.556;2022-08-14T01:55:11;10.43;;;9.53;;
10465;SDS011;5280;42.600;23.556;2022-08-14T01:57:42;10.53;;;9.53;;
10465;SDS011;5280;42.600;23.556;2022-08-14T02:00:10;11.37;;;10.20;;
10465;SDS011;5280;42.600;23.556;2022-08-14T02:02:40;11.20;;;10.10;;
10465;SDS011;5280;42.600;23.556;2022-08-14T02:05:10;12.07;;;10.43;;
10465;SDS011;5280;42.600;23.556;2022-08-14T02:07:37;11.50;;;9.47;;
10465;SDS011;5280;42.600;23.556;2022-08-14T02:10:04;10.77;;;9.67;;
10465;SDS011;5280;42.600;23.556;2022-08-14T02:12:33;10.43;;;9.53;;
10465;SDS011;5280;42.600;23.556;2022-08-14T02:15:01;10.10;;;9.17;;
10465;SDS011;5280;42.600;23.556;2022-08-14T02:17:28;11.03;;;9.80;;
10465;SDS011;5280;42.600;23.556;2022-08-14T02:19:58;12.23;;;9.70;;
10465;SDS011;5280;42.600;23.556;2022-08-14T02:22:25;11.40;;;10.23;;
10465;SDS011;5280;42.600;23.556;2022-08-14T02:24:52;11.10;;;10.00;;
10465;SDS011;5280;42.600;23.556;2022-08-14T02:27:19;12.07;;;10.73;;
10465;SDS011;5280;42.600;23.556;2022-08-14T02:29:46;11.53;;;10.37;;
10465;SDS011;5280;42.600;23.556;2022-08-14T02:32:14;11.10;;;10.10;;
10465;SDS011;5280;42.600;23.556;2022-08-14T02:34:42;10.50;;;9.50;;
10465;SDS011;5280;42.600;23.556;2022-08-14T02:37:10;11.83;;;10.30;;
10465;SDS011;5280;42.600;23.556;2022-08-14T02:39:38;12.63;;;11.40;;
10465;SDS011;5280;42.600;23.556;2022-08-14T02:42:07;11.63;;;10.63;;
10465;SDS011;5280;42.600;23.556;2022-08-14T02:44:36;11.10;;;10.20;;
10465;SDS011;5280;42.600;23.556;2022-08-14T02:47:03;11.60;;;10.47;;
10465;SDS011;5280;42.600;23.556;2022-08-14T02:49:32;11.77;;;10.33;;
10465;SDS011;5280;42.600;23.556;2022-08-14T02:51:59;12.00;;;10.90;;
10465;SDS011;5280;42.600;23.556;2022-08-14T02:54:27;11.23;;;10.13;;
10465;SDS011;5280;42.600;23.556;2022-08-14T02:56:56;11.90;;;9.93;;
10465;SDS011;5280;42.600;23.556;2022-08-14T02:59:23;11.40;;;10.40;;
10465;SDS011;5280;42.600;23.556;2022-08-14T03:01:52;11.07;;;9.33;;
10465;SDS011;5280;42.600;23.556;2022-08-14T03:04:22;12.17;;;10.40;;
10465;SDS011;5280;42.600;23.556;2022-08-14T03:06:53;11.90;;;10.70;;
10465;SDS011;5280;42.600;23.556;2022-08-14T03:09:21;11.87;;;10.83;;
10465;SDS011;5280;42.600;23.556;2022-08-14T03:11:48;12.77;;;11.50;;
10465;SDS011;5280;42.600;23.556;2022-08-14T03:14:16;12.83;;;10.63;;
10465;SDS011;5280;42.600;23.556;2022-08-14T03:16:44;14.60;;;11.20;;
10465;SDS011;5280;42.600;23.556;2022-08-14T03:19:14;12.00;;;10.80;;
10465;SDS011;5280;42.600;23.556;2022-08-14T03:21:42;11.20;;;10.00;;
10465;SDS011;5280;42.600;23.556;2022-08-14T03:24:11;11.80;;;10.70;;
10465;SDS011;5280;42.600;23.556;2022-08-14T03:26:37;12.47;;;11.17;;
10465;SDS011;5280;42.600;23.556;2022-08-14T03:29:06;12.07;;;10.97;;
10465;SDS011;5280;42.600;23.556;2022-08-14T03:31:33;13.33;;;12.03;;
10465;SDS011;5280;42.600;23.556;2022-08-14T03:34:02;12.23;;;11.00;;
10465;SDS011;5280;42.600;23.556;2022-08-14T03:36:29;14.80;;;12.03;;
10465;SDS011;5280;42.600;23.556;2022-08-14T03:38:58;14.33;;;12.90;;
10465;SDS011;5280;42.600;23.556;2022-08-14T03:41:27;13.37;;;12.00;;
10465;SDS011;5280;42.600;23.556;2022-08-14T03:43:54;14.17;;;12.67;;
10465;SDS011;5280;42.600;23.556;2022-08-14T03:46:22;15.00;;;13.53;;
10465;SDS011;5280;42.600;23.556;2022-08-14T03:48:50;15.43;;;13.30;;
10465;SDS011;5280;42.600;23.556;2022-08-14T03:51:18;13.87;;;12.57;;
10465;SDS011;5280;42.600;23.556;2022-08-14T03:53:47;17.87;;;13.33;;
10465;SDS011;5280;42.600;23.556;2022-08-14T03:56:15;14.60;;;13.20;;
10465;SDS011;5280;42.600;23.556;2022-08-14T03:58:45;15.00;;;13.47;;
10465;SDS011;5280;42.600;23.556;2022-08-14T04:01:13;21.87;;;15.90;;
10465;SDS011;5280;42.600;23.556;2022-08-14T04:03:43;19.67;;;16.20;;
10465;SDS011;5280;42.600;23.556;2022-08-14T04:06:10;16.93;;;15.23;;
10465;SDS011;5280;42.600;23.556;2022-08-14T04:08:37;18.17;;;15.37;;
10465;SDS011;5280;42.600;23.556;2022-08-14T04:11:06;16.17;;;14.47;;
10465;SDS011;5280;42.600;23.556;2022-08-14T04:13:35;15.77;;;14.17;;
10465;SDS011;5280;42.600;23.556;2022-08-14T04:16:05;17.37;;;15.50;;
10465;SDS011;5280;42.600;23.556;2022-08-14T04:18:33;17.97;;;15.30;;
10465;SDS011;5280;42.600;23.556;2022-08-14T04:21:04;14.77;;;13.27;;
10465;SDS011;5280;42.600;23.556;2022-08-14T04:23:31;14.63;;;13.23;;
10465;SDS011;5280;42.600;23.556;2022-08-14T04:26:02;15.07;;;13.43;;
10465;SDS011;5280;42.600;23.556;2022-08-14T04:28:32;14.47;;;12.97;;
10465;SDS011;5280;42.600;23.556;2022-08-14T04:31:00;15.90;;;14.30;;
10465;SDS011;5280;42.600;23.556;2022-08-14T04:33:29;15.23;;;13.73;;
10465;SDS011;5280;42.600;23.556;2022-08-14T04:35:56;18.33;;;14.03;;
10465;SDS011;5280;42.600;23.556;2022-08-14T04:38:23;15.00;;;13.50;;
10465;SDS011;5280;42.600;23.556;2022-08-14T04:41:09;14.53;;;13.03;;
10465;SDS011;5280;42.600;23.556;2022-08-14T04:43:53;14.67;;;13.17;;
10465;SDS011;5280;42.600;23.556;2022-08-14T04:46:21;14.10;;;12.70;;
10465;SDS011;5280;42.600;23.556;2022-08-14T04:48:50;13.93;;;12.63;;
10465;SDS011;5280;42.600;23.556;2022-08-14T04:51:16;12.97;;;11.80;;
10465;SDS011;5280;42.600;23.556;2022-08-14T04:53:45;14.27;;;11.60;;
10465;SDS011;5280;42.600;23.556;2022-08-14T04:56:14;12.60;;;11.50;;
10465;SDS011;5280;42.600;23.556;2022-08-14T04:58:47;13.40;;;11.80;;
10465;SDS011;5280;42.600;23.556;2022-08-14T05:01:15;14.53;;;13.13;;
10465;SDS011;5280;42.600;23.556;2022-08-14T05:03:42;13.27;;;12.07;;
10465;SDS011;5280;42.600;23.556;2022-08-14T05:06:11;14.27;;;12.97;;
10465;SDS011;5280;42.600;23.556;2022-08-14T05:08:38;13.43;;;12.13;;
10465;SDS011;5280;42.600;23.556;2022-08-14T05:11:07;15.53;;;13.80;;
10465;SDS011;5280;42.600;23.556;2022-08-14T05:13:35;15.80;;;13.90;;
10465;SDS011;5280;42.600;23.556;2022-08-14T05:16:04;13.30;;;12.20;;
10465;SDS011;5280;42.600;23.556;2022-08-14T05:18:33;14.47;;;13.07;;
10465;SDS011;5280;42.600;23.556;2022-08-14T05:21:02;15.10;;;13.73;;
10465;SDS011;5280;42.600;23.556;2022-08-14T05:23:32;14.57;;;13.07;;
10465;SDS011;5280;42.600;23.556;2022-08-14T05:26:00;15.80;;;14.30;;
10465;SDS011;5280;42.600;23.556;2022-08-14T05:28:30;17.83;;;16.00;;
10465;SDS011;5280;42.600;23.556;2022-08-14T05:30:59;17.37;;;15.73;;
10465;SDS011;5280;42.600;23.556;2022-08-14T05:33:28;15.93;;;14.40;;
10465;SDS011;5280;42.600;23.556;2022-08-14T05:35:58;18.53;;;16.83;;
10465;SDS011;5280;42.600;23.556;2022-08-14T05:38:26;17.20;;;15.50;;
10465;SDS011;5280;42.600;23.556;2022-08-14T05:40:59;18.37;;;16.43;;
10465;SDS011;5280;42.600;23.556;2022-08-14T05:43:26;17.27;;;15.57;;
10465;SDS011;5280;42.600;23.556;2022-08-14T05:45:53;17.73;;;16.03;;
10465;SDS011;5280;42.600;23.556;2022-08-14T05:48:20;19.57;;;17.30;;
10465;SDS011;5280;42.600;23.556;2022-08-14T05:50:48;18.90;;;16.90;;
10465;SDS011;5280;42.600;23.556;2022-08-14T05:53:15;19.80;;;17.90;;
10465;SDS011;5280;42.600;23.556;2022-08-14T05:55:42;20.03;;;17.43;;
10465;SDS011;5280;42.600;23.556;2022-08-14T05:58:10;20.03;;;17.90;;
10465;SDS011;5280;42.600;23.556;2022-08-14T06:00:37;21.00;;;18.83;;
10465;SDS011;5280;42.600;23.556;2022-08-14T06:03:07;22.80;;;20.37;;
10465;SDS011;5280;42.600;23.556;2022-08-14T06:05:36;24.63;;;21.93;;
10465;SDS011;5280;42.600;23.556;2022-08-14T06:08:03;24.30;;;21.37;;
10465;SDS011;5280;42.600;23.556;2022-08-14T06:10:31;25.03;;;22.40;;
10465;SDS011;5280;42.600;23.556;2022-08-14T06:12:58;25.50;;;22.23;;
10465;SDS011;5280;42.600;23.556;2022-08-14T06:15:28;23.13;;;20.63;;
10465;SDS011;5280;42.600;23.556;2022-08-14T06:17:55;25.97;;;21.47;;
10465;SDS011;5280;42.600;23.556;2022-08-14T06:20:23;21.87;;;19.37;;
10465;SDS011;5280;42.600;23.556;2022-08-14T06:22:50;24.30;;;19.87;;
10465;SDS011;5280;42.600;23.556;2022-08-14T06:25:17;24.23;;;21.43;;
10465;SDS011;5280;42.600;23.556;2022-08-14T06:27:45;22.73;;;20.43;;
10465;SDS011;5280;42.600;23.556;2022-08-14T06:30:14;22.40;;;20.17;;
10465;SDS011;5280;42.600;23.556;2022-08-14T06:32:45;25.13;;;21.87;;
10465;SDS011;5280;42.600;23.556;2022-08-14T06:35:13;22.20;;;19.90;;
10465;SDS011;5280;42.600;23.556;2022-08-14T06:37:43;23.40;;;20.83;;
10465;SDS011;5280;42.600;23.556;2022-08-14T06:40:12;22.97;;;20.60;;
10465;SDS011;5280;42.600;23.556;2022-08-14T06:42:40;22.30;;;19.93;;
10465;SDS011;5280;42.600;23.556;2022-08-14T06:45:08;22.07;;;19.77;;
10465;SDS011;5280;42.600;23.556;2022-08-14T06:47:36;24.20;;;21.60;;
10465;SDS011;5280;42.600;23.556;2022-08-14T06:50:07;21.03;;;18.83;;
10465;SDS011;5280;42.600;23.556;2022-08-14T06:52:35;25.87;;;20.97;;
10465;SDS011;5280;42.600;23.556;2022-08-14T06:55:02;25.20;;;22.57;;
10465;SDS011;5280;42.600;23.556;2022-08-14T06:57:35;30.30;;;24.50;;
10465;SDS011;5280;42.600;23.556;2022-08-14T07:00:05;28.73;;;25.53;;
10465;SDS011;5280;42.600;23.556;2022-08-14T07:02:33;25.30;;;22.53;;
10465;SDS011;5280;42.600;23.556;2022-08-14T07:05:19;30.80;;;25.30;;
10465;SDS011;5280;42.600;23.556;2022-08-14T07:08:03;27.60;;;24.33;;
10465;SDS011;5280;42.600;23.556;2022-08-14T07:10:30;26.27;;;23.43;;
10465;SDS011;5280;42.600;23.556;2022-08-14T07:12:58;25.70;;;22.77;;
10465;SDS011;5280;42.600;23.556;2022-08-14T07:15:25;28.90;;;24.40;;
10465;SDS011;5280;42.600;23.556;2022-08-14T07:17:52;25.90;;;22.63;;
10465;SDS011;5280;42.600;23.556;2022-08-14T07:23:21;33.10;;;28.70;;
10465;SDS011;5280;42.600;23.556;2022-08-14T07:25:50;36.47;;;27.87;;
10465;SDS011;5280;42.600;23.556;2022-08-14T07:28:19;37.67;;;29.23;;
10465;SDS011;5280;42.600;23.556;2022-08-14T07:30:48;30.17;;;25.37;;
10465;SDS011;5280;42.600;23.556;2022-08-14T07:33:16;34.53;;;29.07;;
10465;SDS011;5280;42.600;23.556;2022-08-14T07:35:43;45.93;;;33.43;;
10465;SDS011;5280;42.600;23.556;2022-08-14T07:38:15;35.87;;;29.10;;
10465;SDS011;5280;42.600;23.556;2022-08-14T07:40:46;33.30;;;27.17;;
10465;SDS011;5280;42.600;23.556;2022-08-14T07:43:14;31.07;;;26.73;;
10465;SDS011;5280;42.600;23.556;2022-08-14T07:45:44;25.60;;;22.90;;
10465;SDS011;5280;42.600;23.556;2022-08-14T07:48:11;23.10;;;20.80;;
10465;SDS011;5280;42.600;23.556;2022-08-14T07:50:44;21.43;;;19.33;;
10465;SDS011;5280;42.600;23.556;2022-08-14T07:53:14;27.97;;;24.50;;
10465;SDS011;5280;42.600;23.556;2022-08-14T07:55:42;26.90;;;23.33;;
10465;SDS011;5280;42.600;23.556;2022-08-14T07:58:10;26.37;;;23.53;;
10465;SDS011;5280;42.600;23.556;2022-08-14T08:00:39;29.67;;;23.57;;
10465;SDS011;5280;42.600;23.556;2022-08-14T08:03:06;21.20;;;19.00;;
10465;SDS011;5280;42.600;23.556;2022-08-14T08:05:35;21.57;;;19.33;;
10465;SDS011;5280;42.600;23.556;2022-08-14T08:08:03;20.57;;;18.47;;
10465;SDS011;5280;42.600;23.556;2022-08-14T08:10:31;21.73;;;19.50;;
10465;SDS011;5280;42.600;23.556;2022-08-14T08:13:03;20.67;;;18.50;;
10465;SDS011;5280;42.600;23.556;2022-08-14T08:15:33;21.37;;;19.27;;
10465;SDS011;5280;42.600;23.556;2022-08-14T08:18:03;21.97;;;19.67;;
10465;SDS011;5280;42.600;23.556;2022-08-14T08:20:32;24.43;;;21.10;;
10465;SDS011;5280;42.600;23.556;2022-08-14T08:23:03;24.07;;;21.60;;
10465;SDS011;5280;42.600;23.556;2022-08-14T08:25:33;21.53;;;19.23;;
10465;SDS011;5280;42.600;23.556;2022-08-14T08:28:04;18.53;;;16.20;;
10465;SDS011;5280;42.600;23.556;2022-08-14T08:30:35;18.40;;;16.50;;
10465;SDS011;5280;42.600;23.556;2022-08-14T08:33:05;19.47;;;17.47;;
10465;SDS011;5280;42.600;23.556;2022-08-14T08:35:33;18.67;;;16.67;;
10465;SDS011;5280;42.600;23.556;2022-08-14T08:38:03;15.97;;;14.37;;
10465;SDS011;5280;42.600;23.556;2022-08-14T08:40:33;15.93;;;14.23;;
10465;SDS011;5280;42.600;23.556;2022-08-14T08:43:02;15.37;;;13.13;;
10465;SDS011;5280;42.600;23.556;2022-08-14T08:45:31;18.00;;;16.17;;
10465;SDS011;5280;42.600;23.556;2022-08-14T08:48:01;17.67;;;14.63;;
10465;SDS011;5280;42.600;23.556;2022-08-14T08:50:29;15.47;;;13.77;;
10465;SDS011;5280;42.600;23.556;2022-08-14T08:52:59;13.77;;;12.37;;
10465;SDS011;5280;42.600;23.556;2022-08-14T08:55:29;14.50;;;13.20;;
10465;SDS011;5280;42.600;23.556;2022-08-14T08:57:59;13.93;;;12.60;;
10465;SDS011;5280;42.600;23.556;2022-08-14T09:00:29;14.73;;;13.33;;
10465;SDS011;5280;42.600;23.556;2022-08-14T09:03:06;14.33;;;13.00;;
10465;SDS011;5280;42.600;23.556;2022-08-14T09:05:35;16.00;;;14.40;;
10465;SDS011;5280;42.600;23.556;2022-08-14T09:08:10;16.00;;;14.40;;
10465;SDS011;5280;42.600;23.556;2022-08-14T09:10:38;15.63;;;14.13;;
10465;SDS011;5280;42.600;23.556;2022-08-14T09:13:08;16.37;;;14.77;;
10465;SDS011;5280;42.600;23.556;2022-08-14T09:15:37;15.40;;;13.40;;
10465;SDS011;5280;42.600;23.556;2022-08-14T09:18:07;14.87;;;12.40;;
10465;SDS011;5280;42.600;23.556;2022-08-14T09:20:37;15.10;;;13.73;;
10465;SDS011;5280;42.600;23.556;2022-08-14T09:23:05;13.90;;;12.70;;
10465;SDS011;5280;42.600;23.556;2022-08-14T09:25:32;14.00;;;12.70;;
10465;SDS011;5280;42.600;23.556;2022-08-14T09:27:59;13.10;;;11.90;;
10465;SDS011;5280;42.600;23.556;2022-08-14T09:30:26;14.50;;;13.17;;
10465;SDS011;5280;42.600;23.556;2022-08-14T09:33:21;13.23;;;11.97;;
10465;SDS011;5280;42.600;23.556;2022-08-14T09:38:35;12.73;;;11.63;;
10465;SDS011;5280;42.600;23.556;2022-08-14T09:47:44;9.50;;;8.67;;
10465;SDS011;5280;42.600;23.556;2022-08-14T09:53:30;12.30;;;11.20;;
10465;SDS011;5280;42.600;23.556;2022-08-14T10:04:21;9.77;;;8.93;;
10465;SDS011;5280;42.600;23.556;2022-08-14T10:16:02;9.20;;;8.43;;
10465;SDS011;5280;42.600;23.556;2022-08-14T10:18:29;8.60;;;7.87;;
10465;SDS011;5280;42.600;23.556;2022-08-14T10:20:59;7.60;;;7.00;;
10465;SDS011;5280;42.600;23.556;2022-08-14T10:23:37;7.90;;;7.30;;
10465;SDS011;5280;42.600;23.556;2022-08-14T10:35:03;10.17;;;9.17;;
10465;SDS011;5280;42.600;23.556;2022-08-14T10:37:36;9.93;;;9.13;;
10465;SDS011;5280;42.600;23.556;2022-08-14T10:40:04;9.77;;;8.97;;
10465;SDS011;5280;42.600;23.556;2022-08-14T10:42:33;8.83;;;8.20;;
10465;SDS011;5280;42.600;23.556;2022-08-14T10:45:02;7.53;;;6.93;;
10465;SDS011;5280;42.600;23.556;2022-08-14T10:47:33;6.37;;;5.70;;
10465;SDS011;5280;42.600;23.556;2022-08-14T10:50:00;5.60;;;5.20;;
10465;SDS011;5280;42.600;23.556;2022-08-14T10:52:30;5.83;;;5.43;;
10465;SDS011;5280;42.600;23.556;2022-08-14T10:55:04;6.17;;;5.67;;
10465;SDS011;5280;42.600;23.556;2022-08-14T10:57:33;6.07;;;5.67;;
10465;SDS011;5280;42.600;23.556;2022-08-14T11:00:13;6.03;;;5.53;;
10465;SDS011;5280;42.600;23.556;2022-08-14T11:02:41;4.87;;;4.57;;
10465;SDS011;5280;42.600;23.556;2022-08-14T11:05:09;5.13;;;4.83;;
10465;SDS011;5280;42.600;23.556;2022-08-14T11:07:40;4.63;;;4.33;;
10465;SDS011;5280;42.600;23.556;2022-08-14T11:10:20;4.70;;;4.40;;
10465;SDS011;5280;42.600;23.556;2022-08-14T11:12:49;5.00;;;4.70;;
10465;SDS011;5280;42.600;23.556;2022-08-14T11:15:18;5.50;;;5.10;;
10465;SDS011;5280;42.600;23.556;2022-08-14T11:17:48;5.37;;;4.97;;
10465;SDS011;5280;42.600;23.556;2022-08-14T11:20:18;5.50;;;5.10;;
10465;SDS011;5280;42.600;23.556;2022-08-14T11:22:48;5.83;;;5.30;;
10465;SDS011;5280;42.600;23.556;2022-08-14T11:25:19;5.80;;;5.30;;
10465;SDS011;5280;42.600;23.556;2022-08-14T11:27:48;4.90;;;4.60;;
10465;SDS011;5280;42.600;23.556;2022-08-14T11:30:17;5.37;;;4.97;;
10465;SDS011;5280;42.600;23.556;2022-08-14T11:32:46;6.67;;;6.17;;
10465;SDS011;5280;42.600;23.556;2022-08-14T11:35:17;6.40;;;5.90;;
10465;SDS011;5280;42.600;23.556;2022-08-14T11:37:49;6.50;;;6.00;;
10465;SDS011;5280;42.600;23.556;2022-08-14T11:40:18;6.20;;;5.80;;
10465;SDS011;5280;42.600;23.556;2022-08-14T11:42:47;6.37;;;5.97;;
10465;SDS011;5280;42.600;23.556;2022-08-14T11:45:20;6.70;;;6.20;;
10465;SDS011;5280;42.600;23.556;2022-08-14T11:47:49;6.53;;;6.10;;
10465;SDS011;5280;42.600;23.556;2022-08-14T11:50:18;7.33;;;6.73;;
10465;SDS011;5280;42.600;23.556;2022-08-14T11:52:48;7.20;;;6.70;;
10465;SDS011;5280;42.600;23.556;2022-08-14T11:55:18;7.00;;;6.50;;
10465;SDS011;5280;42.600;23.556;2022-08-14T11:57:45;6.90;;;6.30;;
10465;SDS011;5280;42.600;23.556;2022-08-14T12:00:13;6.13;;;5.70;;
10465;SDS011;5280;42.600;23.556;2022-08-14T12:02:48;6.07;;;5.50;;
10465;SDS011;5280;42.600;23.556;2022-08-14T12:05:26;5.83;;;5.33;;
10465;SDS011;5280;42.600;23.556;2022-08-14T12:07:58;5.60;;;5.20;;
10465;SDS011;5280;42.600;23.556;2022-08-14T12:10:26;5.40;;;5.00;;
10465;SDS011;5280;42.600;23.556;2022-08-14T12:12:57;5.53;;;5.13;;
10465;SDS011;5280;42.600;23.556;2022-08-14T12:15:28;5.50;;;5.10;;
10465;SDS011;5280;42.600;23.556;2022-08-14T12:17:56;5.87;;;5.47;;
10465;SDS011;5280;42.600;23.556;2022-08-14T12:20:28;5.77;;;5.30;;
10465;SDS011;5280;42.600;23.556;2022-08-14T12:22:59;6.37;;;5.90;;
10465;SDS011;5280;42.600;23.556;2022-08-14T12:25:27;6.17;;;5.77;;
10465;SDS011;5280;42.600;23.556;2022-08-14T12:27:57;6.60;;;6.10;;
10465;SDS011;5280;42.600;23.556;2022-08-14T12:30:32;7.10;;;6.50;;
10465;SDS011;5280;42.600;23.556;2022-08-14T12:33:01;6.90;;;6.40;;
10465;SDS011;5280;42.600;23.556;2022-08-14T12:35:37;6.53;;;6.03;;
10465;SDS011;5280;42.600;23.556;2022-08-14T12:38:07;5.30;;;5.00;;
10465;SDS011;5280;42.600;23.556;2022-08-14T12:40:43;5.40;;;5.00;;
10465;SDS011;5280;42.600;23.556;2022-08-14T12:43:11;4.63;;;4.33;;
10465;SDS011;5280;42.600;23.556;2022-08-14T12:45:39;5.10;;;4.80;;
10465;SDS011;5280;42.600;23.556;2022-08-14T12:48:19;5.33;;;4.97;;
10465;SDS011;5280;42.600;23.556;2022-08-14T12:50:47;5.50;;;5.03;;
10465;SDS011;5280;42.600;23.556;2022-08-14T12:53:17;5.47;;;5.07;;
10465;SDS011;5280;42.600;23.556;2022-08-14T12:55:45;5.13;;;4.73;;
10465;SDS011;5280;42.600;23.556;2022-08-14T12:58:26;5.00;;;4.70;;
10465;SDS011;5280;42.600;23.556;2022-08-14T13:00:54;5.20;;;4.77;;
10465;SDS011;5280;42.600;23.556;2022-08-14T13:03:22;5.37;;;4.73;;
10465;SDS011;5280;42.600;23.556;2022-08-14T13:05:50;5.30;;;4.90;;
10465;SDS011;5280;42.600;23.556;2022-08-14T13:08:19;5.07;;;4.68;;
10465;SDS011;5280;42.600;23.556;2022-08-14T13:10:47;5.40;;;5.00;;
10465;SDS011;5280;42.600;23.556;2022-08-14T13:13:16;6.00;;;5.60;;
10465;SDS011;5280;42.600;23.556;2022-08-14T13:15:45;5.60;;;5.10;;
10465;SDS011;5280;42.600;23.556;2022-08-14T13:18:17;5.10;;;4.80;;
10465;SDS011;5280;42.600;23.556;2022-08-14T13:20:47;6.63;;;5.53;;
10465;SDS011;5280;42.600;23.556;2022-08-14T13:23:15;5.67;;;5.27;;
10465;SDS011;5280;42.600;23.556;2022-08-14T13:25:47;6.10;;;5.70;;
10465;SDS011;5280;42.600;23.556;2022-08-14T13:28:18;6.23;;;5.63;;
10465;SDS011;5280;42.600;23.556;2022-08-14T13:30:47;6.00;;;5.60;;
10465;SDS011;5280;42.600;23.556;2022-08-14T13:33:17;5.70;;;5.30;;
10465;SDS011;5280;42.600;23.556;2022-08-14T13:35:47;5.90;;;5.40;;
10465;SDS011;5280;42.600;23.556;2022-08-14T13:38:16;5.70;;;5.30;;
10465;SDS011;5280;42.600;23.556;2022-08-14T13:40:47;6.10;;;5.60;;
10465;SDS011;5280;42.600;23.556;2022-08-14T13:43:20;5.57;;;5.07;;
10465;SDS011;5280;42.600;23.556;2022-08-14T13:45:48;6.27;;;5.77;;
10465;SDS011;5280;42.600;23.556;2022-08-14T13:48:16;6.27;;;5.87;;
10465;SDS011;5280;42.600;23.556;2022-08-14T13:50:46;5.97;;;5.47;;
10465;SDS011;5280;42.600;23.556;2022-08-14T13:53:15;6.00;;;5.60;;
10465;SDS011;5280;42.600;23.556;2022-08-14T13:55:44;5.93;;;5.37;;
10465;SDS011;5280;42.600;23.556;2022-08-14T13:58:16;6.70;;;6.20;;
10465;SDS011;5280;42.600;23.556;2022-08-14T14:00:46;6.40;;;5.90;;
10465;SDS011;5280;42.600;23.556;2022-08-14T14:03:16;6.80;;;6.30;;
10465;SDS011;5280;42.600;23.556;2022-08-14T14:05:44;6.57;;;5.90;;
10465;SDS011;5280;42.600;23.556;2022-08-14T14:08:15;6.67;;;6.07;;
10465;SDS011;5280;42.600;23.556;2022-08-14T14:10:45;6.87;;;6.37;;
10465;SDS011;5280;42.600;23.556;2022-08-14T14:13:14;8.43;;;6.77;;
10465;SDS011;5280;42.600;23.556;2022-08-14T14:15:44;7.37;;;6.30;;
10465;SDS011;5280;42.600;23.556;2022-08-14T14:18:13;7.47;;;6.80;;
10465;SDS011;5280;42.600;23.556;2022-08-14T14:20:42;7.43;;;6.90;;
10465;SDS011;5280;42.600;23.556;2022-08-14T14:23:11;7.70;;;6.27;;
10465;SDS011;5280;42.600;23.556;2022-08-14T14:25:40;8.40;;;6.90;;
10465;SDS011;5280;42.600;23.556;2022-08-14T14:28:11;7.53;;;6.70;;
10465;SDS011;5280;42.600;23.556;2022-08-14T14:30:42;7.43;;;6.70;;
10465;SDS011;5280;42.600;23.556;2022-08-14T14:33:12;7.93;;;7.33;;
10465;SDS011;5280;42.600;23.556;2022-08-14T14:35:42;7.17;;;6.20;;
10465;SDS011;5280;42.600;23.556;2022-08-14T14:38:14;7.17;;;6.53;;
10465;SDS011;5280;42.600;23.556;2022-08-14T14:40:42;7.43;;;6.90;;
10465;SDS011;5280;42.600;23.556;2022-08-14T14:43:12;7.40;;;6.80;;
10465;SDS011;5280;42.600;23.556;2022-08-14T14:45:42;7.10;;;6.50;;
10465;SDS011;5280;42.600;23.556;2022-08-14T14:48:11;7.67;;;6.97;;
10465;SDS011;5280;42.600;23.556;2022-08-14T14:50:41;7.27;;;6.60;;
10465;SDS011;5280;42.600;23.556;2022-08-14T14:53:09;7.37;;;6.87;;
10465;SDS011;5280;42.600;23.556;2022-08-14T14:55:36;7.33;;;6.73;;
10465;SDS011;5280;42.600;23.556;2022-08-14T14:58:08;7.30;;;6.80;;
10465;SDS011;5280;42.600;23.556;2022-08-14T15:00:37;7.23;;;6.63;;
10465;SDS011;5280;42.600;23.556;2022-08-14T15:03:05;7.50;;;7.00;;
10465;SDS011;5280;42.600;23.556;2022-08-14T15:05:34;7.23;;;6.73;;
10465;SDS011;5280;42.600;23.556;2022-08-14T15:08:02;7.30;;;6.67;;
10465;SDS011;5280;42.600;23.556;2022-08-14T15:10:31;7.33;;;6.73;;
10465;SDS011;5280;42.600;23.556;2022-08-14T15:12:59;7.57;;;7.00;;
10465;SDS011;5280;42.600;23.556;2022-08-14T15:15:29;7.17;;;6.50;;
10465;SDS011;5280;42.600;23.556;2022-08-14T15:17:57;7.87;;;7.07;;
10465;SDS011;5280;42.600;23.556;2022-08-14T15:20:24;7.87;;;7.17;;
10465;SDS011;5280;42.600;23.556;2022-08-14T15:22:51;8.10;;;7.30;;
10465;SDS011;5280;42.600;23.556;2022-08-14T15:25:21;8.47;;;7.57;;